sensor_id;sensor_type;location;lat;lon;timestamp;P1;durP1;ratioP1;P2;durP2;ratioP2
1987;SDS011;12775;46.994;15.498;2023-11-19T00:00:40;6.52;;;6.02;;
1987;SDS011;12775;46.994;15.498;2023-11-19T00:03:06;6.76;;;6.08;;
1987;SDS011;12775;46.994;15.498;2023-11-19T00:05:34;5.34;;;4.76;;
1987;SDS011;12775;46.994;15.498;2023-11-19T00:08:01;6.64;;;5.94;;
1987;SDS011;12775;46.994;15.498;2023-11-19T00:10:28;7.34;;;5.48;;
1987;SDS011;12775;46.994;15.498;2023-11-19T00:12:56;5.26;;;4.52;;
1987;SDS011;12775;46.994;15.498;2023-11-19T00:15:23;5.74;;;5.14;;
1987;SDS011;12775;46.994;15.498;2023-11-19T00:17:51;7.24;;;4.64;;
1987;SDS011;12775;46.994;15.498;2023-11-19T00:20:18;7.32;;;5.16;;
1987;SDS011;12775;46.994;15.498;2023-11-19T00:22:45;7.10;;;6.18;;
1987;SDS011;12775;46.994;15.498;2023-11-19T00:25:13;7.66;;;6.42;;
1987;SDS011;12775;46.994;15.498;2023-11-19T00:27:39;8.90;;;5.40;;
1987;SDS011;12775;46.994;15.498;2023-11-19T00:30:06;5.80;;;5.18;;
1987;SDS011;12775;46.994;15.498;2023-11-19T00:32:34;7.48;;;6.80;;
1987;SDS011;12775;46.994;15.498;2023-11-19T00:35:01;7.82;;;6.80;;
1987;SDS011;12775;46.994;15.498;2023-11-19T00:37:29;6.24;;;5.66;;
1987;SDS011;12775;46.994;15.498;2023-11-19T00:39:56;8.04;;;7.24;;
1987;SDS011;12775;46.994;15.498;2023-11-19T00:42:23;7.46;;;6.70;;
1987;SDS011;12775;46.994;15.498;2023-11-19T00:44:50;7.04;;;6.18;;
1987;SDS011;12775;46.994;15.498;2023-11-19T00:47:17;9.66;;;6.22;;
1987;SDS011;12775;46.994;15.498;2023-11-19T00:49:44;8.30;;;7.50;;
1987;SDS011;12775;46.994;15.498;2023-11-19T00:52:11;8.02;;;7.22;;
1987;SDS011;12775;46.994;15.498;2023-11-19T00:54:39;7.70;;;6.90;;
1987;SDS011;12775;46.994;15.498;2023-11-19T00:57:06;7.78;;;6.90;;
1987;SDS011;12775;46.994;15.498;2023-11-19T00:59:33;6.60;;;6.00;;
1987;SDS011;12775;46.994;15.498;2023-11-19T01:02:01;6.28;;;5.76;;
1987;SDS011;12775;46.994;15.498;2023-11-19T01:04:29;8.56;;;6.14;;
1987;SDS011;12775;46.994;15.498;2023-11-19T01:06:56;7.78;;;6.98;;
1987;SDS011;12775;46.994;15.498;2023-11-19T01:09:24;8.14;;;7.36;;
1987;SDS011;12775;46.994;15.498;2023-11-19T01:11:51;10.02;;;7.12;;
1987;SDS011;12775;46.994;15.498;2023-11-19T01:14:18;10.66;;;6.70;;
1987;SDS011;12775;46.994;15.498;2023-11-19T01:16:46;10.00;;;7.98;;
1987;SDS011;12775;46.994;15.498;2023-11-19T01:19:12;7.20;;;6.48;;
1987;SDS011;12775;46.994;15.498;2023-11-19T01:21:40;6.96;;;6.26;;
1987;SDS011;12775;46.994;15.498;2023-11-19T01:24:07;8.14;;;6.22;;
1987;SDS011;12775;46.994;15.498;2023-11-19T01:26:34;7.00;;;6.30;;
1987;SDS011;12775;46.994;15.498;2023-11-19T01:29:01;7.36;;;6.26;;
1987;SDS011;12775;46.994;15.498;2023-11-19T01:31:28;7.00;;;6.40;;
1987;SDS011;12775;46.994;15.498;2023-11-19T01:33:56;6.34;;;5.66;;
1987;SDS011;12775;46.994;15.498;2023-11-19T01:36:23;7.70;;;6.86;;
1987;SDS011;12775;46.994;15.498;2023-11-19T01:38:51;6.82;;;6.14;;
1987;SDS011;12775;46.994;15.498;2023-11-19T01:41:18;7.34;;;6.60;;
1987;SDS011;12775;46.994;15.498;2023-11-19T01:43:45;6.84;;;5.98;;
1987;SDS011;12775;46.994;15.498;2023-11-19T01:46:11;7.18;;;5.72;;
1987;SDS011;12775;46.994;15.498;2023-11-19T01:48:41;6.20;;;5.38;;
1987;SDS011;12775;46.994;15.498;2023-11-19T01:51:05;6.40;;;5.80;;
1987;SDS011;12775;46.994;15.498;2023-11-19T01:53:32;8.38;;;7.12;;
1987;SDS011;12775;46.994;15.498;2023-11-19T01:55:58;5.90;;;5.40;;
1987;SDS011;12775;46.994;15.498;2023-11-19T01:58:25;7.64;;;6.00;;
1987;SDS011;12775;46.994;15.498;2023-11-19T02:00:52;8.98;;;5.94;;
1987;SDS011;12775;46.994;15.498;2023-11-19T02:03:19;7.64;;;5.80;;
1987;SDS011;12775;46.994;15.498;2023-11-19T02:05:46;6.82;;;6.22;;
1987;SDS011;12775;46.994;15.498;2023-11-19T02:08:13;6.60;;;5.90;;
1987;SDS011;12775;46.994;15.498;2023-11-19T02:10:40;7.00;;;6.40;;
1987;SDS011;12775;46.994;15.498;2023-11-19T02:13:08;6.84;;;5.68;;
1987;SDS011;12775;46.994;15.498;2023-11-19T02:15:35;8.68;;;6.76;;
1987;SDS011;12775;46.994;15.498;2023-11-19T02:20:42;7.26;;;5.80;;
1987;SDS011;12775;46.994;15.498;2023-11-19T02:23:09;6.78;;;6.10;;
1987;SDS011;12775;46.994;15.498;2023-11-19T02:25:36;6.70;;;5.34;;
1987;SDS011;12775;46.994;15.498;2023-11-19T02:28:04;6.06;;;5.48;;
1987;SDS011;12775;46.994;15.498;2023-11-19T02:30:31;7.26;;;6.56;;
1987;SDS011;12775;46.994;15.498;2023-11-19T02:32:59;8.38;;;6.26;;
1987;SDS011;12775;46.994;15.498;2023-11-19T02:35:25;6.66;;;5.90;;
1987;SDS011;12775;46.994;15.498;2023-11-19T02:37:53;6.48;;;5.88;;
1987;SDS011;12775;46.994;15.498;2023-11-19T02:40:21;6.98;;;6.20;;
1987;SDS011;12775;46.994;15.498;2023-11-19T02:42:47;7.30;;;6.58;;
1987;SDS011;12775;46.994;15.498;2023-11-19T02:45:14;7.76;;;6.20;;
1987;SDS011;12775;46.994;15.498;2023-11-19T02:47:41;6.86;;;5.82;;
1987;SDS011;12775;46.994;15.498;2023-11-19T02:50:08;6.38;;;5.78;;
1987;SDS011;12775;46.994;15.498;2023-11-19T02:52:36;7.14;;;6.36;;
1987;SDS011;12775;46.994;15.498;2023-11-19T02:55:03;8.66;;;6.02;;
1987;SDS011;12775;46.994;15.498;2023-11-19T02:57:31;7.26;;;6.16;;
1987;SDS011;12775;46.994;15.498;2023-11-19T02:59:57;5.70;;;5.20;;
1987;SDS011;12775;46.994;15.498;2023-11-19T03:02:23;8.16;;;6.30;;
1987;SDS011;12775;46.994;15.498;2023-11-19T03:04:50;7.62;;;5.58;;
1987;SDS011;12775;46.994;15.498;2023-11-19T03:07:16;7.02;;;6.36;;
1987;SDS011;12775;46.994;15.498;2023-11-19T03:09:44;7.20;;;6.50;;
1987;SDS011;12775;46.994;15.498;2023-11-19T03:12:11;7.36;;;6.60;;
1987;SDS011;12775;46.994;15.498;2023-11-19T03:14:39;6.86;;;6.26;;
1987;SDS011;12775;46.994;15.498;2023-11-19T03:17:06;6.04;;;5.48;;
1987;SDS011;12775;46.994;15.498;2023-11-19T03:19:33;7.70;;;7.06;;
1987;SDS011;12775;46.994;15.498;2023-11-19T03:22:01;6.10;;;5.48;;
1987;SDS011;12775;46.994;15.498;2023-11-19T03:24:28;7.68;;;6.30;;
1987;SDS011;12775;46.994;15.498;2023-11-19T03:26:55;7.16;;;6.16;;
1987;SDS011;12775;46.994;15.498;2023-11-19T03:29:23;8.18;;;7.32;;
1987;SDS011;12775;46.994;15.498;2023-11-19T03:31:50;7.24;;;6.54;;
1987;SDS011;12775;46.994;15.498;2023-11-19T03:34:18;8.94;;;6.74;;
1987;SDS011;12775;46.994;15.498;2023-11-19T03:36:44;7.92;;;7.12;;
1987;SDS011;12775;46.994;15.498;2023-11-19T03:39:11;8.00;;;6.28;;
1987;SDS011;12775;46.994;15.498;2023-11-19T03:41:38;9.76;;;6.92;;
1987;SDS011;12775;46.994;15.498;2023-11-19T03:44:05;7.86;;;7.08;;
1987;SDS011;12775;46.994;15.498;2023-11-19T03:46:33;7.90;;;7.10;;
1987;SDS011;12775;46.994;15.498;2023-11-19T03:48:59;8.96;;;7.38;;
1987;SDS011;12775;46.994;15.498;2023-11-19T03:51:27;8.16;;;7.00;;
1987;SDS011;12775;46.994;15.498;2023-11-19T03:53:55;8.14;;;7.32;;
1987;SDS011;12775;46.994;15.498;2023-11-19T03:56:22;7.14;;;6.44;;
1987;SDS011;12775;46.994;15.498;2023-11-19T03:58:50;7.20;;;6.38;;
1987;SDS011;12775;46.994;15.498;2023-11-19T04:01:16;6.88;;;6.00;;
1987;SDS011;12775;46.994;15.498;2023-11-19T04:03:43;7.88;;;6.98;;
1987;SDS011;12775;46.994;15.498;2023-11-19T04:06:10;6.28;;;5.70;;
1987;SDS011;12775;46.994;15.498;2023-11-19T04:08:37;6.96;;;6.16;;
1987;SDS011;12775;46.994;15.498;2023-11-19T04:11:04;8.04;;;6.60;;
1987;SDS011;12775;46.994;15.498;2023-11-19T04:13:32;7.58;;;6.58;;
1987;SDS011;12775;46.994;15.498;2023-11-19T04:15:58;9.16;;;6.32;;
1987;SDS011;12775;46.994;15.498;2023-11-19T04:18:26;7.40;;;6.70;;
1987;SDS011;12775;46.994;15.498;2023-11-19T04:20:53;8.06;;;6.28;;
1987;SDS011;12775;46.994;15.498;2023-11-19T04:23:20;6.30;;;5.70;;
1987;SDS011;12775;46.994;15.498;2023-11-19T04:25:48;7.74;;;6.76;;
1987;SDS011;12775;46.994;15.498;2023-11-19T04:28:15;8.04;;;7.24;;
1987;SDS011;12775;46.994;15.498;2023-11-19T04:30:42;7.16;;;6.44;;
1987;SDS011;12775;46.994;15.498;2023-11-19T04:33:10;9.26;;;7.40;;
1987;SDS011;12775;46.994;15.498;2023-11-19T04:35:38;6.70;;;6.10;;
1987;SDS011;12775;46.994;15.498;2023-11-19T04:38:06;7.72;;;7.02;;
1987;SDS011;12775;46.994;15.498;2023-11-19T04:40:32;8.52;;;6.46;;
1987;SDS011;12775;46.994;15.498;2023-11-19T04:43:00;7.74;;;7.04;;
1987;SDS011;12775;46.994;15.498;2023-11-19T04:45:27;7.06;;;6.34;;
1987;SDS011;12775;46.994;15.498;2023-11-19T04:47:54;6.82;;;6.22;;
1987;SDS011;12775;46.994;15.498;2023-11-19T04:50:21;7.48;;;6.68;;
1987;SDS011;12775;46.994;15.498;2023-11-19T04:52:48;6.56;;;6.06;;
1987;SDS011;12775;46.994;15.498;2023-11-19T04:55:16;6.36;;;5.76;;
1987;SDS011;12775;46.994;15.498;2023-11-19T04:57:43;8.32;;;7.00;;
1987;SDS011;12775;46.994;15.498;2023-11-19T05:00:11;6.92;;;6.04;;
1987;SDS011;12775;46.994;15.498;2023-11-19T05:02:39;8.02;;;7.26;;
1987;SDS011;12775;46.994;15.498;2023-11-19T05:05:06;7.76;;;6.52;;
1987;SDS011;12775;46.994;15.498;2023-11-19T05:07:34;9.00;;;7.46;;
1987;SDS011;12775;46.994;15.498;2023-11-19T05:10:01;7.44;;;6.70;;
1987;SDS011;12775;46.994;15.498;2023-11-19T05:12:28;8.40;;;6.32;;
1987;SDS011;12775;46.994;15.498;2023-11-19T05:14:54;6.10;;;5.50;;
1987;SDS011;12775;46.994;15.498;2023-11-19T05:17:22;7.92;;;6.96;;
1987;SDS011;12775;46.994;15.498;2023-11-19T05:19:49;7.64;;;6.40;;
1987;SDS011;12775;46.994;15.498;2023-11-19T05:22:16;7.90;;;7.20;;
1987;SDS011;12775;46.994;15.498;2023-11-19T05:24:44;8.76;;;6.52;;
1987;SDS011;12775;46.994;15.498;2023-11-19T05:27:11;9.42;;;7.30;;
1987;SDS011;12775;46.994;15.498;2023-11-19T05:29:38;7.52;;;6.44;;
1987;SDS011;12775;46.994;15.498;2023-11-19T05:32:06;5.72;;;5.22;;
1987;SDS011;12775;46.994;15.498;2023-11-19T05:34:33;7.68;;;6.14;;
1987;SDS011;12775;46.994;15.498;2023-11-19T05:37:01;7.18;;;6.50;;
1987;SDS011;12775;46.994;15.498;2023-11-19T05:39:28;6.86;;;6.26;;
1987;SDS011;12775;46.994;15.498;2023-11-19T05:41:55;7.30;;;6.36;;
1987;SDS011;12775;46.994;15.498;2023-11-19T05:44:22;7.18;;;6.48;;
1987;SDS011;12775;46.994;15.498;2023-11-19T05:46:49;6.36;;;5.80;;
1987;SDS011;12775;46.994;15.498;2023-11-19T05:49:16;6.14;;;5.36;;
1987;SDS011;12775;46.994;15.498;2023-11-19T05:51:43;6.86;;;6.22;;
1987;SDS011;12775;46.994;15.498;2023-11-19T05:54:11;8.40;;;6.44;;
1987;SDS011;12775;46.994;15.498;2023-11-19T05:56:38;10.94;;;7.66;;
1987;SDS011;12775;46.994;15.498;2023-11-19T05:59:06;7.84;;;6.26;;
1987;SDS011;12775;46.994;15.498;2023-11-19T06:01:34;6.62;;;6.02;;
1987;SDS011;12775;46.994;15.498;2023-11-19T06:04:00;8.14;;;6.78;;
1987;SDS011;12775;46.994;15.498;2023-11-19T06:06:27;7.22;;;6.52;;
1987;SDS011;12775;46.994;15.498;2023-11-19T06:08:53;7.72;;;6.92;;
1987;SDS011;12775;46.994;15.498;2023-11-19T06:11:21;9.02;;;8.12;;
1987;SDS011;12775;46.994;15.498;2023-11-19T06:13:48;10.18;;;7.54;;
1987;SDS011;12775;46.994;15.498;2023-11-19T06:16:15;8.18;;;7.48;;
1987;SDS011;12775;46.994;15.498;2023-11-19T06:18:43;6.90;;;6.28;;
1987;SDS011;12775;46.994;15.498;2023-11-19T06:21:10;7.10;;;6.46;;
1987;SDS011;12775;46.994;15.498;2023-11-19T06:23:36;8.92;;;7.24;;
1987;SDS011;12775;46.994;15.498;2023-11-19T06:26:03;10.40;;;8.38;;
1987;SDS011;12775;46.994;15.498;2023-11-19T06:28:31;10.48;;;8.40;;
1987;SDS011;12775;46.994;15.498;2023-11-19T06:30:59;13.28;;;11.08;;
1987;SDS011;12775;46.994;15.498;2023-11-19T06:33:25;12.22;;;10.90;;
1987;SDS011;12775;46.994;15.498;2023-11-19T06:35:52;13.54;;;9.48;;
1987;SDS011;12775;46.994;15.498;2023-11-19T06:38:20;11.72;;;9.54;;
1987;SDS011;12775;46.994;15.498;2023-11-19T06:40:47;11.54;;;10.08;;
1987;SDS011;12775;46.994;15.498;2023-11-19T06:43:15;13.28;;;9.02;;
1987;SDS011;12775;46.994;15.498;2023-11-19T06:45:42;8.22;;;7.42;;
1987;SDS011;12775;46.994;15.498;2023-11-19T06:48:09;10.70;;;9.60;;
1987;SDS011;12775;46.994;15.498;2023-11-19T06:50:37;9.24;;;8.34;;
1987;SDS011;12775;46.994;15.498;2023-11-19T06:53:04;10.04;;;9.14;;
1987;SDS011;12775;46.994;15.498;2023-11-19T06:55:32;8.80;;;7.90;;
1987;SDS011;12775;46.994;15.498;2023-11-19T06:57:59;8.34;;;7.30;;
1987;SDS011;12775;46.994;15.498;2023-11-19T07:00:26;12.98;;;8.72;;
1987;SDS011;12775;46.994;15.498;2023-11-19T07:02:53;8.64;;;7.40;;
1987;SDS011;12775;46.994;15.498;2023-11-19T07:05:20;12.74;;;7.86;;
1987;SDS011;12775;46.994;15.498;2023-11-19T07:07:46;8.44;;;7.64;;
1987;SDS011;12775;46.994;15.498;2023-11-19T07:10:14;8.60;;;7.70;;
1987;SDS011;12775;46.994;15.498;2023-11-19T07:12:41;7.84;;;7.04;;
1987;SDS011;12775;46.994;15.498;2023-11-19T07:15:09;9.10;;;8.26;;
1987;SDS011;12775;46.994;15.498;2023-11-19T07:17:36;8.24;;;7.20;;
1987;SDS011;12775;46.994;15.498;2023-11-19T07:20:04;7.70;;;6.98;;
1987;SDS011;12775;46.994;15.498;2023-11-19T07:22:32;8.94;;;8.00;;
1987;SDS011;12775;46.994;15.498;2023-11-19T07:24:59;8.74;;;7.94;;
1987;SDS011;12775;46.994;15.498;2023-11-19T07:27:26;7.62;;;6.52;;
1987;SDS011;12775;46.994;15.498;2023-11-19T07:29:54;8.78;;;7.54;;
1987;SDS011;12775;46.994;15.498;2023-11-19T07:32:21;7.46;;;6.60;;
1987;SDS011;12775;46.994;15.498;2023-11-19T07:34:48;9.40;;;8.50;;
1987;SDS011;12775;46.994;15.498;2023-11-19T07:37:16;11.52;;;10.40;;
1987;SDS011;12775;46.994;15.498;2023-11-19T07:39:43;11.30;;;10.10;;
1987;SDS011;12775;46.994;15.498;2023-11-19T07:42:11;8.70;;;7.80;;
1987;SDS011;12775;46.994;15.498;2023-11-19T07:44:38;9.54;;;7.60;;
1987;SDS011;12775;46.994;15.498;2023-11-19T07:47:05;10.18;;;8.46;;
1987;SDS011;12775;46.994;15.498;2023-11-19T07:49:33;9.86;;;8.22;;
1987;SDS011;12775;46.994;15.498;2023-11-19T07:52:00;11.90;;;9.62;;
1987;SDS011;12775;46.994;15.498;2023-11-19T07:54:27;11.78;;;10.58;;
1987;SDS011;12775;46.994;15.498;2023-11-19T07:56:55;15.54;;;14.04;;
1987;SDS011;12775;46.994;15.498;2023-11-19T07:59:22;13.24;;;10.82;;
1987;SDS011;12775;46.994;15.498;2023-11-19T08:01:49;12.58;;;9.82;;
1987;SDS011;12775;46.994;15.498;2023-11-19T08:04:17;8.92;;;8.14;;
1987;SDS011;12775;46.994;15.498;2023-11-19T08:06:43;11.16;;;9.64;;
1987;SDS011;12775;46.994;15.498;2023-11-19T08:09:10;15.68;;;14.12;;
1987;SDS011;12775;46.994;15.498;2023-11-19T08:11:40;12.40;;;11.10;;
1987;SDS011;12775;46.994;15.498;2023-11-19T08:14:08;14.50;;;12.26;;
1987;SDS011;12775;46.994;15.498;2023-11-19T08:16:35;12.78;;;10.96;;
1987;SDS011;12775;46.994;15.498;2023-11-19T08:19:03;12.34;;;9.78;;
1987;SDS011;12775;46.994;15.498;2023-11-19T08:21:30;12.90;;;10.42;;
1987;SDS011;12775;46.994;15.498;2023-11-19T08:23:57;14.28;;;10.98;;
1987;SDS011;12775;46.994;15.498;2023-11-19T08:26:24;14.80;;;13.40;;
1987;SDS011;12775;46.994;15.498;2023-11-19T08:28:50;11.34;;;9.22;;
1987;SDS011;12775;46.994;15.498;2023-11-19T08:31:17;9.62;;;8.62;;
1987;SDS011;12775;46.994;15.498;2023-11-19T08:33:44;10.38;;;9.28;;
1987;SDS011;12775;46.994;15.498;2023-11-19T08:36:15;10.28;;;9.28;;
1987;SDS011;12775;46.994;15.498;2023-11-19T08:38:42;10.04;;;8.66;;
1987;SDS011;12775;46.994;15.498;2023-11-19T08:41:09;8.80;;;8.00;;
1987;SDS011;12775;46.994;15.498;2023-11-19T08:43:38;11.46;;;8.34;;
1987;SDS011;12775;46.994;15.498;2023-11-19T08:46:09;9.22;;;8.42;;
1987;SDS011;12775;46.994;15.498;2023-11-19T08:48:36;8.88;;;7.70;;
1987;SDS011;12775;46.994;15.498;2023-11-19T08:51:04;8.94;;;8.04;;
1987;SDS011;12775;46.994;15.498;2023-11-19T08:53:31;9.70;;;8.58;;
1987;SDS011;12775;46.994;15.498;2023-11-19T08:55:59;10.32;;;9.28;;
1987;SDS011;12775;46.994;15.498;2023-11-19T08:58:26;10.08;;;8.54;;
1987;SDS011;12775;46.994;15.498;2023-11-19T09:00:54;14.26;;;12.76;;
1987;SDS011;12775;46.994;15.498;2023-11-19T09:03:21;8.58;;;7.78;;
1987;SDS011;12775;46.994;15.498;2023-11-19T09:05:48;8.40;;;7.64;;
1987;SDS011;12775;46.994;15.498;2023-11-19T09:08:15;9.58;;;6.64;;
1987;SDS011;12775;46.994;15.498;2023-11-19T09:10:41;8.80;;;7.90;;
1987;SDS011;12775;46.994;15.498;2023-11-19T09:13:09;9.26;;;7.52;;
1987;SDS011;12775;46.994;15.498;2023-11-19T09:15:35;9.58;;;8.00;;
1987;SDS011;12775;46.994;15.498;2023-11-19T09:18:02;10.20;;;7.42;;
1987;SDS011;12775;46.994;15.498;2023-11-19T09:20:29;9.74;;;8.84;;
1987;SDS011;12775;46.994;15.498;2023-11-19T09:22:56;8.80;;;7.90;;
1987;SDS011;12775;46.994;15.498;2023-11-19T09:25:23;10.80;;;8.04;;
1987;SDS011;12775;46.994;15.498;2023-11-19T09:27:51;9.42;;;8.32;;
1987;SDS011;12775;46.994;15.498;2023-11-19T09:30:18;8.60;;;7.52;;
1987;SDS011;12775;46.994;15.498;2023-11-19T09:32:45;8.22;;;7.50;;
1987;SDS011;12775;46.994;15.498;2023-11-19T09:35:13;8.62;;;7.90;;
1987;SDS011;12775;46.994;15.498;2023-11-19T09:37:40;10.72;;;9.84;;
1987;SDS011;12775;46.994;15.498;2023-11-19T09:40:08;9.74;;;8.78;;
1987;SDS011;12775;46.994;15.498;2023-11-19T09:42:44;7.88;;;7.10;;
1987;SDS011;12775;46.994;15.498;2023-11-19T09:45:04;8.40;;;7.52;;
1987;SDS011;12775;46.994;15.498;2023-11-19T09:47:33;7.48;;;6.78;;
1987;SDS011;12775;46.994;15.498;2023-11-19T09:49:59;7.08;;;6.40;;
1987;SDS011;12775;46.994;15.498;2023-11-19T09:52:26;6.90;;;6.30;;
1987;SDS011;12775;46.994;15.498;2023-11-19T09:54:53;6.80;;;6.20;;
1987;SDS011;12775;46.994;15.498;2023-11-19T09:57:19;7.22;;;6.52;;
1987;SDS011;12775;46.994;15.498;2023-11-19T09:59:47;8.88;;;7.38;;
1987;SDS011;12775;46.994;15.498;2023-11-19T10:02:13;8.88;;;5.78;;
1987;SDS011;12775;46.994;15.498;2023-11-19T10:04:40;5.68;;;5.18;;
1987;SDS011;12775;46.994;15.498;2023-11-19T10:07:08;5.48;;;4.98;;
1987;SDS011;12775;46.994;15.498;2023-11-19T10:09:35;6.90;;;6.20;;
1987;SDS011;12775;46.994;15.498;2023-11-19T10:12:02;5.86;;;5.30;;
1987;SDS011;12775;46.994;15.498;2023-11-19T10:14:30;6.66;;;6.06;;
1987;SDS011;12775;46.994;15.498;2023-11-19T10:16:57;7.02;;;6.02;;
1987;SDS011;12775;46.994;15.498;2023-11-19T10:19:24;6.32;;;5.42;;
1987;SDS011;12775;46.994;15.498;2023-11-19T10:21:52;8.38;;;6.50;;
1987;SDS011;12775;46.994;15.498;2023-11-19T10:24:30;6.18;;;5.54;;
1987;SDS011;12775;46.994;15.498;2023-11-19T10:26:46;6.50;;;5.96;;
1987;SDS011;12775;46.994;15.498;2023-11-19T10:29:14;6.80;;;5.76;;
1987;SDS011;12775;46.994;15.498;2023-11-19T10:31:41;5.80;;;5.22;;
1987;SDS011;12775;46.994;15.498;2023-11-19T10:34:24;7.14;;;6.48;;
1987;SDS011;12775;46.994;15.498;2023-11-19T10:36:51;12.68;;;6.52;;
1987;SDS011;12775;46.994;15.498;2023-11-19T10:39:18;6.54;;;5.94;;
1987;SDS011;12775;46.994;15.498;2023-11-19T10:41:46;6.82;;;6.18;;
1987;SDS011;12775;46.994;15.498;2023-11-19T10:44:23;7.18;;;6.48;;
1987;SDS011;12775;46.994;15.498;2023-11-19T10:46:42;8.16;;;6.80;;
1987;SDS011;12775;46.994;15.498;2023-11-19T10:49:09;6.44;;;5.82;;
1987;SDS011;12775;46.994;15.498;2023-11-19T10:51:36;5.76;;;5.20;;
1987;SDS011;12775;46.994;15.498;2023-11-19T10:54:04;6.64;;;5.94;;
1987;SDS011;12775;46.994;15.498;2023-11-19T10:56:32;7.04;;;6.26;;
1987;SDS011;12775;46.994;15.498;2023-11-19T10:58:59;6.68;;;6.08;;
1987;SDS011;12775;46.994;15.498;2023-11-19T11:01:27;8.38;;;6.50;;
1987;SDS011;12775;46.994;15.498;2023-11-19T11:03:53;7.90;;;6.12;;
1987;SDS011;12775;46.994;15.498;2023-11-19T11:06:20;7.52;;;6.76;;
1987;SDS011;12775;46.994;15.498;2023-11-19T11:08:48;7.14;;;6.44;;
1987;SDS011;12775;46.994;15.498;2023-11-19T11:11:15;6.96;;;5.90;;
1987;SDS011;12775;46.994;15.498;2023-11-19T11:13:42;7.32;;;6.62;;
1987;SDS011;12775;46.994;15.498;2023-11-19T11:16:09;6.30;;;5.70;;
1987;SDS011;12775;46.994;15.498;2023-11-19T11:18:36;5.94;;;5.38;;
1987;SDS011;12775;46.994;15.498;2023-11-19T11:21:05;9.74;;;8.84;;
1987;SDS011;12775;46.994;15.498;2023-11-19T11:23:37;7.56;;;6.86;;
1987;SDS011;12775;46.994;15.498;2023-11-19T11:29:02;6.64;;;5.98;;
1987;SDS011;12775;46.994;15.498;2023-11-19T11:31:38;6.98;;;6.38;;
1987;SDS011;12775;46.994;15.498;2023-11-19T11:34:10;8.64;;;6.58;;
1987;SDS011;12775;46.994;15.498;2023-11-19T11:36:53;6.56;;;5.96;;
1987;SDS011;12775;46.994;15.498;2023-11-19T11:39:16;11.50;;;9.16;;
1987;SDS011;12775;46.994;15.498;2023-11-19T11:41:43;8.20;;;6.46;;
1987;SDS011;12775;46.994;15.498;2023-11-19T11:44:10;6.68;;;5.84;;
1987;SDS011;12775;46.994;15.498;2023-11-19T11:49:24;5.96;;;5.46;;
1987;SDS011;12775;46.994;15.498;2023-11-19T11:51:57;6.30;;;5.70;;
1987;SDS011;12775;46.994;15.498;2023-11-19T11:54:25;6.74;;;5.92;;
1987;SDS011;12775;46.994;15.498;2023-11-19T11:59:47;6.74;;;6.12;;
1987;SDS011;12775;46.994;15.498;2023-11-19T12:02:14;7.22;;;5.60;;
1987;SDS011;12775;46.994;15.498;2023-11-19T12:04:41;5.60;;;5.10;;
1987;SDS011;12775;46.994;15.498;2023-11-19T12:07:11;6.26;;;5.66;;
1987;SDS011;12775;46.994;15.498;2023-11-19T12:09:40;6.98;;;6.38;;
1987;SDS011;12775;46.994;15.498;2023-11-19T12:12:11;5.34;;;4.84;;
1987;SDS011;12775;46.994;15.498;2023-11-19T12:15:09;6.94;;;5.82;;
1987;SDS011;12775;46.994;15.498;2023-11-19T12:20:14;6.06;;;5.46;;
1987;SDS011;12775;46.994;15.498;2023-11-19T12:22:41;6.16;;;5.56;;
1987;SDS011;12775;46.994;15.498;2023-11-19T12:25:09;6.14;;;5.48;;
1987;SDS011;12775;46.994;15.498;2023-11-19T12:27:36;6.40;;;5.80;;
1987;SDS011;12775;46.994;15.498;2023-11-19T12:30:03;6.20;;;5.54;;
1987;SDS011;12775;46.994;15.498;2023-11-19T12:32:39;6.18;;;5.60;;
1987;SDS011;12775;46.994;15.498;2023-11-19T12:35:07;5.92;;;4.66;;
1987;SDS011;12775;46.994;15.498;2023-11-19T12:37:34;5.12;;;4.62;;
1987;SDS011;12775;46.994;15.498;2023-11-19T12:40:01;5.68;;;4.54;;
1987;SDS011;12775;46.994;15.498;2023-11-19T12:42:35;5.62;;;4.66;;
1987;SDS011;12775;46.994;15.498;2023-11-19T12:45:02;5.04;;;4.64;;
1987;SDS011;12775;46.994;15.498;2023-11-19T12:47:29;4.62;;;4.28;;
1987;SDS011;12775;46.994;15.498;2023-11-19T12:49:56;4.44;;;4.04;;
1987;SDS011;12775;46.994;15.498;2023-11-19T12:52:23;6.66;;;4.22;;
1987;SDS011;12775;46.994;15.498;2023-11-19T12:54:49;4.24;;;3.84;;
1987;SDS011;12775;46.994;15.498;2023-11-19T12:57:16;4.32;;;3.92;;
1987;SDS011;12775;46.994;15.498;2023-11-19T12:59:54;4.72;;;4.32;;
1987;SDS011;12775;46.994;15.498;2023-11-19T13:02:16;5.00;;;4.50;;
1987;SDS011;12775;46.994;15.498;2023-11-19T13:04:43;4.32;;;3.92;;
1987;SDS011;12775;46.994;15.498;2023-11-19T13:07:10;4.62;;;4.08;;
1987;SDS011;12775;46.994;15.498;2023-11-19T13:09:36;4.68;;;4.32;;
1987;SDS011;12775;46.994;15.498;2023-11-19T13:12:12;6.88;;;3.86;;
1987;SDS011;12775;46.994;15.498;2023-11-19T13:14:44;4.40;;;4.00;;
1987;SDS011;12775;46.994;15.498;2023-11-19T13:17:13;5.14;;;3.98;;
1987;SDS011;12775;46.994;15.498;2023-11-19T13:19:39;4.88;;;4.36;;
1987;SDS011;12775;46.994;15.498;2023-11-19T13:22:06;5.80;;;3.80;;
1987;SDS011;12775;46.994;15.498;2023-11-19T13:24:32;6.48;;;4.04;;
1987;SDS011;12775;46.994;15.498;2023-11-19T13:26:59;4.14;;;3.52;;
1987;SDS011;12775;46.994;15.498;2023-11-19T13:29:26;4.50;;;4.08;;
1987;SDS011;12775;46.994;15.498;2023-11-19T13:31:53;4.70;;;4.22;;
1987;SDS011;12775;46.994;15.498;2023-11-19T13:34:20;8.38;;;7.10;;
1987;SDS011;12775;46.994;15.498;2023-11-19T13:36:47;10.06;;;7.50;;
1987;SDS011;12775;46.994;15.498;2023-11-19T13:39:14;8.62;;;7.18;;
1987;SDS011;12775;46.994;15.498;2023-11-19T13:41:42;5.34;;;4.86;;
1987;SDS011;12775;46.994;15.498;2023-11-19T13:44:08;4.80;;;4.30;;
1987;SDS011;12775;46.994;15.498;2023-11-19T13:46:35;5.42;;;4.72;;
1987;SDS011;12775;46.994;15.498;2023-11-19T13:49:02;4.86;;;4.46;;
1987;SDS011;12775;46.994;15.498;2023-11-19T13:51:28;5.26;;;4.76;;
1987;SDS011;12775;46.994;15.498;2023-11-19T13:53:55;5.28;;;4.78;;
1987;SDS011;12775;46.994;15.498;2023-11-19T13:56:21;4.74;;;4.36;;
1987;SDS011;12775;46.994;15.498;2023-11-19T13:58:48;5.32;;;4.82;;
1987;SDS011;12775;46.994;15.498;2023-11-19T14:01:15;4.74;;;4.00;;
1987;SDS011;12775;46.994;15.498;2023-11-19T14:03:42;4.82;;;4.34;;
1987;SDS011;12775;46.994;15.498;2023-11-19T14:06:09;5.80;;;5.26;;
1987;SDS011;12775;46.994;15.498;2023-11-19T14:08:35;6.28;;;5.68;;
1987;SDS011;12775;46.994;15.498;2023-11-19T14:11:02;5.24;;;4.74;;
1987;SDS011;12775;46.994;15.498;2023-11-19T14:13:29;6.12;;;5.52;;
1987;SDS011;12775;46.994;15.498;2023-11-19T14:15:56;5.14;;;4.72;;
1987;SDS011;12775;46.994;15.498;2023-11-19T14:18:24;7.20;;;5.98;;
1987;SDS011;12775;46.994;15.498;2023-11-19T14:20:51;5.80;;;5.20;;
1987;SDS011;12775;46.994;15.498;2023-11-19T14:23:17;7.20;;;6.12;;
1987;SDS011;12775;46.994;15.498;2023-11-19T14:25:45;6.78;;;6.04;;
1987;SDS011;12775;46.994;15.498;2023-11-19T14:28:12;7.40;;;6.42;;
1987;SDS011;12775;46.994;15.498;2023-11-19T14:30:39;6.50;;;5.66;;
1987;SDS011;12775;46.994;15.498;2023-11-19T14:33:06;6.72;;;6.12;;
1987;SDS011;12775;46.994;15.498;2023-11-19T14:35:33;9.90;;;7.08;;
1987;SDS011;12775;46.994;15.498;2023-11-19T14:37:59;6.02;;;5.42;;
1987;SDS011;12775;46.994;15.498;2023-11-19T14:40:26;7.26;;;5.72;;
1987;SDS011;12775;46.994;15.498;2023-11-19T14:42:52;7.74;;;6.54;;
1987;SDS011;12775;46.994;15.498;2023-11-19T14:45:19;7.42;;;6.72;;
1987;SDS011;12775;46.994;15.498;2023-11-19T14:47:47;10.92;;;5.54;;
1987;SDS011;12775;46.994;15.498;2023-11-19T14:50:14;5.62;;;5.02;;
1987;SDS011;12775;46.994;15.498;2023-11-19T14:52:42;7.28;;;6.04;;
1987;SDS011;12775;46.994;15.498;2023-11-19T14:55:08;6.02;;;4.88;;
1987;SDS011;12775;46.994;15.498;2023-11-19T14:57:35;10.88;;;5.38;;
1987;SDS011;12775;46.994;15.498;2023-11-19T15:00:02;7.22;;;5.86;;